Time;durP1;ratioP1;P1;durP2;ratioP2;P2;SDS_P1;SDS_P2;PMS_P1;PMS_P2;Temp;Humidity;BMP_temperature;BMP_pressure;BME280_temperature;BME280_humidity;BME280_pressure;Samples;Min_cycle;Max_cycle;Signal;HPM_P1;HPM_P2
2022/10/31 00:00:44;;;;;;;7.47;1.67;;;;;;;11.10;100.00;100744.53;4794899;29;20030;-78
2022/10/31 00:03:10;;;;;;;6.28;1.80;;;;;;;11.09;100.00;100745.66;4812475;29;20054;-78
2022/10/31 00:05:35;;;;;;;8.02;1.65;;;;;;;11.08;100.00;100730.06;4797902;29;20030;-78
2022/10/31 00:08:00;;;;;;;7.35;1.70;;;;;;;11.08;100.00;100735.63;4797695;29;20072;-78
2022/10/31 00:10:26;;;;;;;7.35;1.45;;;;;;;11.06;100.00;100727.63;4823071;29;20064;-78
2022/10/31 00:12:51;;;;;;;6.20;1.55;;;;;;;11.06;100.00;100722.06;4797184;29;20033;-78
2022/10/31 00:15:17;;;;;;;5.90;1.55;;;;;;;11.08;100.00;100724.53;4828237;29;20034;-78
2022/10/31 00:17:42;;;;;;;7.22;1.55;;;;;;;11.06;100.00;100710.94;4796528;29;20557;-78
2022/10/31 00:20:09;;;;;;;5.15;1.42;;;;;;;11.03;100.00;100716.22;4827816;29;20398;-78
2022/10/31 00:22:34;;;;;;;7.20;1.48;;;;;;;11.03;100.00;100721.78;4798083;29;20059;-78
2022/10/31 00:25:00;;;;;;;6.38;1.52;;;;;;;11.01;100.00;100718.50;4813064;29;20654;-78
2022/10/31 00:27:25;;;;;;;7.88;2.03;;;;;;;10.96;100.00;100720.19;4827791;29;20034;-78
2022/10/31 00:29:50;;;;;;;5.80;1.52;;;;;;;10.99;100.00;100713.22;4812816;29;20041;-78
2022/10/31 00:32:16;;;;;;;8.88;2.15;;;;;;;10.98;100.00;100719.91;4797754;29;20503;-78
2022/10/31 00:34:41;;;;;;;5.22;1.70;;;;;;;10.99;100.00;100720.72;4806151;29;20034;-78
2022/10/31 00:37:07;;;;;;;4.78;1.80;;;;;;;10.98;100.00;100721.81;4825243;29;20030;-78
2022/10/31 00:39:32;;;;;;;3.92;1.33;;;;;;;10.93;100.00;100717.97;4844081;29;20704;-78
2022/10/31 00:41:58;;;;;;;8.40;1.85;;;;;;;10.94;100.00;100719.63;4810636;29;20045;-78
2022/10/31 00:44:23;;;;;;;5.82;1.90;;;;;;;10.92;100.00;100724.69;4782788;29;20398;-78
2022/10/31 00:46:49;;;;;;;6.30;1.40;;;;;;;10.88;100.00;100718.03;4812251;29;20030;-78
2022/10/31 00:49:14;;;;;;;5.97;2.00;;;;;;;10.87;100.00;100707.22;4809287;29;20034;-78
2022/10/31 00:51:39;;;;;;;7.00;2.20;;;;;;;10.84;100.00;100705.84;4812679;29;20038;-78
2022/10/31 00:54:05;;;;;;;7.82;2.22;;;;;;;10.86;100.00;100703.59;4827656;29;20038;-78
2022/10/31 00:56:31;;;;;;;6.30;2.13;;;;;;;10.84;100.00;100703.06;4794909;29;20035;-78
2022/10/31 00:58:56;;;;;;;4.18;1.95;;;;;;;10.84;100.00;100705.84;4781840;29;20074;-78
2022/10/31 01:01:21;;;;;;;5.15;2.13;;;;;;;10.83;100.00;100701.41;4815729;29;20026;-78
2022/10/31 01:03:47;;;;;;;8.93;2.33;;;;;;;10.82;100.00;100710.03;4802773;29;20022;-78
2022/10/31 01:06:13;;;;;;;4.38;2.03;;;;;;;10.81;100.00;100698.09;4798425;29;20067;-78
2022/10/31 01:08:38;;;;;;;5.30;2.00;;;;;;;10.82;100.00;100688.63;4800477;29;20131;-78
2022/10/31 01:11:30;;;;;;;6.50;2.53;;;;;;;10.82;100.00;100693.38;4790428;29;20058;-78
2022/10/31 01:13:55;;;;;;;5.95;2.50;;;;;;;10.85;100.00;100695.56;4829126;29;20054;-78
2022/10/31 01:16:22;;;;;;;5.70;2.25;;;;;;;10.84;100.00;100696.69;4830520;29;20441;-78
2022/10/31 01:18:48;;;;;;;5.15;2.53;;;;;;;10.82;100.00;100688.63;4800553;29;20061;-78
2022/10/31 01:21:18;;;;;;;5.32;2.78;;;;;;;10.84;100.00;100694.72;4815386;29;20498;-79
2022/10/31 01:23:44;;;;;;;11.95;2.83;;;;;;;10.85;100.00;100681.66;4800375;29;20026;-78
2022/10/31 01:26:14;;;;;;;7.57;2.63;;;;;;;10.85;100.00;100670.56;4800579;29;20563;-78
2022/10/31 01:29:04;;;;;;;4.47;2.20;;;;;;;10.87;100.00;100676.66;4800180;29;20030;-78
2022/10/31 01:31:31;;;;;;;5.35;2.65;;;;;;;10.88;100.00;100670.78;4808463;29;20065;-78
2022/10/31 01:33:56;;;;;;;2.70;1.95;;;;;;;10.88;100.00;100664.41;4799262;29;20029;-78
2022/10/31 01:36:23;;;;;;;4.68;2.30;;;;;;;10.95;100.00;100665.72;4776938;29;20026;-78
2022/10/31 01:38:49;;;;;;;3.42;1.98;;;;;;;10.92;100.00;100669.09;4813396;29;20034;-78
2022/10/31 01:41:20;;;;;;;4.13;2.10;;;;;;;10.92;100.00;100668.25;4815147;29;20053;-79
2022/10/31 01:44:15;;;;;;;4.75;2.08;;;;;;;10.95;100.00;100662.94;4812049;29;20399;-78
2022/10/31 01:47:08;;;;;;;5.13;2.10;;;;;;;11.00;100.00;100672.34;4831429;29;20046;-78
2022/10/31 01:49:34;;;;;;;3.15;2.00;;;;;;;10.99;100.00;100662.38;4845598;29;20057;-78
2022/10/31 01:52:13;;;;;;;5.10;2.15;;;;;;;10.98;100.00;100663.47;4817644;29;20616;-78
2022/10/31 01:54:41;;;;;;;3.58;2.00;;;;;;;11.02;100.00;100664.56;4799983;29;20619;-78
2022/10/31 01:57:07;;;;;;;5.00;2.95;;;;;;;11.01;100.00;100657.34;4829849;29;20452;-78
2022/10/31 01:59:33;;;;;;;6.38;2.53;;;;;;;10.98;100.00;100653.22;4814793;29;20033;-78
2022/10/31 02:01:58;;;;;;;5.38;2.33;;;;;;;10.96;100.00;100652.66;4826967;29;20026;-78
2022/10/31 02:04:24;;;;;;;3.55;2.30;;;;;;;10.99;100.00;100660.41;4781628;29;20483;-78
2022/10/31 02:06:52;;;;;;;6.18;2.40;;;;;;;11.00;100.00;100655.66;4793995;29;20121;-78
2022/10/31 02:09:18;;;;;;;5.63;2.08;;;;;;;11.02;100.00;100659.00;4809214;29;20034;-78
2022/10/31 02:11:43;;;;;;;5.22;1.95;;;;;;;11.01;100.00;100652.63;4798845;29;20037;-78
2022/10/31 02:14:09;;;;;;;5.35;1.95;;;;;;;11.02;100.00;100653.44;4784771;29;20503;-78
2022/10/31 02:16:34;;;;;;;3.20;2.15;;;;;;;11.02;100.00;100650.66;4829576;29;20044;-78
2022/10/31 02:19:00;;;;;;;4.93;2.10;;;;;;;11.00;100.00;100650.94;4798453;29;20030;-78
2022/10/31 02:21:56;;;;;;;4.07;2.03;;;;;;;10.98;100.00;100647.66;4811197;29;20388;-78
2022/10/31 02:24:24;;;;;;;2.80;1.88;;;;;;;10.95;100.00;100643.50;4814121;29;20026;-78
2022/10/31 02:27:02;;;;;;;4.38;2.03;;;;;;;10.96;100.00;100642.38;4814239;29;20121;-78
2022/10/31 02:29:57;;;;;;;2.35;1.67;;;;;;;10.98;100.00;100627.34;4829386;29;20045;-78
2022/10/31 02:32:44;;;;;;;3.53;1.80;;;;;;;10.99;100.00;100623.47;4840833;29;20042;-78
2022/10/31 02:35:27;;;;;;;2.90;1.58;;;;;;;10.98;100.00;100627.34;4820135;29;20034;-78
2022/10/31 02:38:19;;;;;;;3.35;1.63;;;;;;;10.99;100.00;100623.47;4802031;29;20114;-78
2022/10/31 02:40:51;;;;;;;2.03;1.60;;;;;;;11.00;100.00;100619.53;4829941;29;20038;-78
2022/10/31 02:43:40;;;;;;;5.00;1.60;;;;;;;11.01;100.00;100621.22;4797563;29;20030;-78
2022/10/31 02:46:20;;;;;;;1.42;1.30;;;;;;;10.99;100.00;100626.25;4819305;29;20549;-78
2022/10/31 02:48:45;;;;;;;3.55;1.40;;;;;;;10.99;100.00;100615.94;4816035;29;20107;-78
2022/10/31 02:51:11;;;;;;;2.60;1.50;;;;;;;11.03;100.00;100616.19;4823451;29;20034;-78
2022/10/31 02:53:36;;;;;;;3.25;1.45;;;;;;;11.03;100.00;100622.59;4813509;29;20045;-78
2022/10/31 02:56:05;;;;;;;3.17;1.42;;;;;;;10.99;100.00;100615.13;4780800;29;20542;-78
2022/10/31 02:58:32;;;;;;;1.50;1.27;;;;;;;11.02;100.00;100608.97;4829058;29;20040;-78
2022/10/31 03:01:49;;;;;;;2.42;1.77;;;;;;;10.99;100.00;100615.13;4799035;29;20060;-78
2022/10/31 03:04:38;;;;;;;3.33;1.80;;;;;;;10.99;100.00;100615.13;4739855;30;20148;-78
2022/10/31 03:07:33;;;;;;;1.58;1.40;;;;;;;10.98;100.00;100613.44;4756554;30;20079;-78
2022/10/31 03:10:08;;;;;;;2.17;1.45;;;;;;;11.00;100.00;100611.22;4742508;30;20044;-78
2022/10/31 03:13:01;;;;;;;1.58;1.38;;;;;;;11.03;100.00;100611.47;4737508;30;20037;-78
2022/10/31 03:15:31;;;;;;;1.95;1.20;;;;;;;10.99;100.00;100599.28;4715419;30;20094;-78
2022/10/31 03:17:57;;;;;;;1.85;1.30;;;;;;;10.99;100.00;100595.66;4735414;30;20534;-78
2022/10/31 03:20:26;;;;;;;1.63;1.50;;;;;;;11.03;100.00;100599.50;4759333;30;20039;-78
2022/10/31 03:22:51;;;;;;;1.58;1.48;;;;;;;11.02;100.00;100592.28;4724793;30;20569;-78
2022/10/31 03:25:17;;;;;;;1.92;1.55;;;;;;;11.02;100.00;100593.13;4723195;30;20040;-78
2022/10/31 03:27:42;;;;;;;2.60;1.65;;;;;;;11.06;100.00;100590.56;4737104;30;20059;-78
2022/10/31 03:30:08;;;;;;;3.88;1.60;;;;;;;11.06;100.00;100587.78;4752399;30;20035;-78
2022/10/31 03:32:40;;;;;;;2.13;1.42;;;;;;;11.07;100.00;100581.13;4724527;30;20064;-78
2022/10/31 03:35:06;;;;;;;2.28;1.50;;;;;;;11.12;100.00;100581.91;4768795;29;20046;-78
2022/10/31 03:37:33;;;;;;;1.75;1.20;;;;;;;11.10;100.00;100580.53;4798503;29;20041;-78
2022/10/31 03:39:58;;;;;;;3.33;1.33;;;;;;;11.08;100.00;100575.25;4813288;29;20045;-78
2022/10/31 03:42:25;;;;;;;4.28;1.30;;;;;;;11.08;100.00;100575.25;4797849;29;20026;-78
2022/10/31 03:44:53;;;;;;;3.38;1.73;;;;;;;11.08;100.00;100564.13;4798241;29;20038;-78
2022/10/31 03:47:19;;;;;;;3.65;1.58;;;;;;;11.08;100.00;100563.31;4813089;29;20518;-78
2022/10/31 03:49:45;;;;;;;2.60;1.42;;;;;;;11.09;100.00;100570.56;4812998;29;20034;-78
2022/10/31 03:52:24;;;;;;;4.05;1.38;;;;;;;11.11;100.00;100557.16;4797830;29;20046;-78
2022/10/31 03:55:00;;;;;;;3.10;1.15;;;;;;;11.10;100.00;100556.34;4813896;29;20117;-78
2022/10/31 03:57:53;;;;;;;2.65;1.40;;;;;;;11.12;100.00;100553.28;4787932;29;20073;-78
2022/10/31 04:00:18;;;;;;;1.73;1.30;;;;;;;11.09;100.00;100543.59;4814173;29;20042;-78
2022/10/31 04:02:51;;;;;;;1.80;1.20;;;;;;;11.10;100.00;100539.66;4811303;29;20113;-78
2022/10/31 04:05:17;;;;;;;;;;;;;;;11.11;100.00;100540.50;4828992;29;20099;-78
2022/10/31 04:07:43;;;;;;;2.17;1.20;;;;;;;11.10;100.00;100533.28;4828422;29;20393;-79
2022/10/31 04:10:11;;;;;;;1.83;1.30;;;;;;;11.08;100.00;100536.34;4807403;29;20045;-78
2022/10/31 04:12:36;;;;;;;1.70;1.10;;;;;;;11.10;100.00;100536.88;4812136;29;20067;-78
2022/10/31 04:15:02;;;;;;;1.20;1.00;;;;;;;11.11;100.00;100523.81;4779816;29;20034;-78
2022/10/31 04:17:29;;;;;;;3.83;1.20;;;;;;;11.10;100.00;100528.53;4806779;29;20388;-77
2022/10/31 04:19:55;;;;;;;1.50;1.27;;;;;;;11.11;100.00;100521.03;4786219;29;20026;-77
2022/10/31 04:22:20;;;;;;;3.53;1.08;;;;;;;11.12;100.00;100525.50;4828012;29;20022;-78
2022/10/31 04:24:45;;;;;;;2.00;1.10;;;;;;;11.12;100.00;100520.75;4812533;29;20038;-78
2022/10/31 04:27:11;;;;;;;2.55;1.50;;;;;;;11.13;100.00;100522.38;4797809;29;20030;-78
2022/10/31 04:29:36;;;;;;;4.78;1.40;;;;;;;11.12;100.00;100508.81;4798357;29;20053;-78
2022/10/31 04:32:02;;;;;;;2.58;1.05;;;;;;;11.12;100.00;100511.59;4812652;29;20037;-78
2022/10/31 04:34:27;;;;;;;1.30;0.80;;;;;;;11.12;100.00;100503.25;4797875;29;20066;-78
2022/10/31 04:36:53;;;;;;;0.90;0.88;;;;;;;11.13;100.00;100502.13;4816359;29;20372;-78
2022/10/31 04:39:18;;;;;;;0.98;0.90;;;;;;;11.15;100.00;100492.34;4786120;29;20038;-78
2022/10/31 04:41:44;;;;;;;1.20;0.90;;;;;;;11.16;100.00;100487.63;4800735;29;20034;-78
2022/10/31 04:44:09;;;;;;;0.98;0.88;;;;;;;11.17;100.00;100490.09;4799705;29;20022;-78
2022/10/31 04:46:35;;;;;;;2.63;1.08;;;;;;;11.18;100.00;100490.94;4831179;29;20074;-78
2022/10/31 04:49:00;;;;;;;3.60;1.00;;;;;;;11.17;100.00;100478.13;4816918;29;20060;-78
2022/10/31 04:51:26;;;;;;;0.80;0.80;;;;;;;11.17;100.00;100473.44;4808405;29;20083;-78
2022/10/31 04:53:51;;;;;;;1.42;1.30;;;;;;;11.17;100.00;100467.88;4785729;29;20506;-78
2022/10/31 04:56:17;;;;;;;2.35;0.90;;;;;;;11.18;100.00;100463.13;4786133;29;20037;-78
2022/10/31 04:58:42;;;;;;;1.02;0.93;;;;;;;11.19;100.00;100460.03;4800823;29;20030;-78
2022/10/31 05:01:08;;;;;;;1.17;0.90;;;;;;;11.21;100.00;100461.72;4831232;29;20037;-78
2022/10/31 05:03:33;;;;;;;2.92;1.10;;;;;;;11.22;100.00;100461.41;4797211;29;20026;-78
2022/10/31 05:05:59;;;;;;;2.13;1.00;;;;;;;11.22;100.00;100455.00;4824142;29;20037;-78
2022/10/31 05:08:24;;;;;;;0.70;0.70;;;;;;;11.22;100.00;100452.22;4830673;29;20403;-78
2022/10/31 05:10:50;;;;;;;1.58;0.93;;;;;;;11.22;100.00;100453.06;4810661;29;20034;-78
2022/10/31 05:13:15;;;;;;;0.98;0.88;;;;;;;11.24;100.00;100447.22;4800081;29;20041;-78
2022/10/31 05:15:41;;;;;;;1.15;1.02;;;;;;;11.26;100.00;100453.31;4800562;29;20032;-78
2022/10/31 05:18:06;;;;;;;1.13;0.90;;;;;;;11.24;100.00;100450.81;4830409;29;20186;-78
2022/10/31 05:20:32;;;;;;;1.65;0.88;;;;;;;11.25;100.00;100446.88;4799951;29;20125;-78
2022/10/31 05:22:58;;;;;;;5.97;1.40;;;;;;;11.28;100.00;100440.75;4815462;29;20038;-77
2022/10/31 05:25:25;;;;;;;2.80;1.05;;;;;;;11.27;100.00;100444.66;4800668;29;20050;-78
2022/10/31 05:27:51;;;;;;;1.92;1.10;;;;;;;11.28;100.00;100445.47;4785319;29;20076;-78
2022/10/31 05:30:19;;;;;;;1.80;1.15;;;;;;;11.31;100.00;100444.88;4815400;29;20034;-78
2022/10/31 05:32:46;;;;;;;1.50;1.30;;;;;;;11.33;100.00;100443.44;4788675;29;20038;-78
2022/10/31 05:35:13;;;;;;;2.35;1.33;;;;;;;11.31;100.00;100436.53;4791115;29;20038;-78
2022/10/31 05:37:39;;;;;;;1.70;1.40;;;;;;;11.32;100.00;100438.19;4797345;29;20133;-78
2022/10/31 05:40:06;;;;;;;2.05;1.40;;;;;;;11.33;100.00;100432.31;4785192;29;20038;-78
2022/10/31 05:42:32;;;;;;;1.77;1.30;;;;;;;11.31;100.00;100429.03;4828839;29;20054;-78
2022/10/31 05:44:57;;;;;;;1.60;1.13;;;;;;;11.31;100.00;100423.47;4829219;29;20042;-78
2022/10/31 05:47:23;;;;;;;1.92;1.30;;;;;;;11.34;100.00;100420.09;4799861;29;20066;-78
2022/10/31 05:49:48;;;;;;;2.78;1.50;;;;;;;11.34;100.00;100406.19;4837212;29;20483;-78
2022/10/31 05:52:14;;;;;;;3.38;1.42;;;;;;;11.34;100.00;100406.19;4800891;29;20034;-78
2022/10/31 05:54:39;;;;;;;12.60;2.30;;;;;;;11.34;100.00;100403.41;4830184;29;20042;-78
2022/10/31 05:57:05;;;;;;;3.58;1.80;;;;;;;11.34;100.00;100395.06;4831741;29;20038;-78
2022/10/31 05:59:30;;;;;;;10.93;1.85;;;;;;;11.36;100.00;100390.00;4830087;29;20037;-78
2022/10/31 06:01:55;;;;;;;4.45;2.10;;;;;;;11.37;100.00;100379.72;4799940;29;20038;-78
2022/10/31 06:04:21;;;;;;;2.78;1.80;;;;;;;11.38;100.00;100375.81;4812992;29;20034;-78
2022/10/31 06:06:46;;;;;;;1.45;1.35;;;;;;;11.36;100.00;100376.09;4829474;29;20042;-78
2022/10/31 06:09:12;;;;;;;2.97;1.58;;;;;;;11.36;100.00;100372.50;4825823;29;20026;-78
2022/10/31 06:11:37;;;;;;;1.88;1.67;;;;;;;11.39;100.00;100374.69;4798093;29;20041;-78
2022/10/31 06:14:04;;;;;;;3.10;1.70;;;;;;;11.43;100.00;100369.34;4799800;29;20034;-78
2022/10/31 06:16:29;;;;;;;4.20;2.60;;;;;;;11.41;100.00;100362.13;4821776;29;20082;-78
2022/10/31 06:18:54;;;;;;;2.40;1.90;;;;;;;11.41;100.00;100353.78;4799468;29;20048;-78
2022/10/31 06:21:20;;;;;;;3.42;2.22;;;;;;;11.43;100.00;100353.50;4811689;29;20034;-78
2022/10/31 06:23:45;;;;;;;4.22;2.67;;;;;;;11.41;100.00;100344.63;4792137;29;20686;-78
2022/10/31 06:26:11;;;;;;;3.80;2.20;;;;;;;11.44;100.00;100348.75;4799398;29;20042;-77
2022/10/31 06:28:36;;;;;;;4.63;1.90;;;;;;;11.41;100.00;100339.88;4799281;29;20041;-78
2022/10/31 06:31:02;;;;;;;4.03;2.28;;;;;;;11.44;100.00;100346.78;4799234;29;20045;-78
2022/10/31 06:33:27;;;;;;;2.95;2.17;;;;;;;11.46;100.00;100347.31;4814132;29;20457;-78
2022/10/31 06:35:53;;;;;;;4.20;2.60;;;;;;;11.47;100.00;100348.13;4820379;29;20034;-78
2022/10/31 06:38:18;;;;;;;2.70;2.10;;;;;;;11.47;100.00;100342.56;4799376;29;20046;-78
2022/10/31 06:40:44;;;;;;;2.42;2.03;;;;;;;11.47;100.00;100340.63;4814380;29;20053;-78
2022/10/31 06:43:11;;;;;;;3.67;2.42;;;;;;;11.48;100.00;100333.94;4813714;29;20062;-77
2022/10/31 06:45:36;;;;;;;4.28;2.67;;;;;;;11.51;100.00;100321.38;4814350;29;20038;-78
2022/10/31 06:48:02;;;;;;;3.50;3.03;;;;;;;11.51;100.00;100321.38;4814039;29;20065;-78
2022/10/31 06:50:27;;;;;;;4.43;2.90;;;;;;;11.50;100.00;100322.50;4795030;29;20110;-78
2022/10/31 06:52:54;;;;;;;5.47;3.08;;;;;;;11.51;100.00;100318.59;4798789;29;20038;-78
2022/10/31 06:55:23;;;;;;;6.28;3.50;;;;;;;11.52;100.00;100306.34;4813325;29;20033;-78
2022/10/31 06:57:52;;;;;;;6.40;4.20;;;;;;;11.52;100.00;100309.13;4810952;29;20038;-78
2022/10/31 07:00:18;;;;;;;7.55;3.88;;;;;;;11.53;100.00;100310.75;4824315;29;20090;-78
2022/10/31 07:02:43;;;;;;;4.40;4.00;;;;;;;11.53;100.00;100306.06;4796346;29;20023;-78
2022/10/31 07:05:09;;;;;;;4.43;3.83;;;;;;;11.54;100.00;100304.09;4798452;29;20037;-78
2022/10/31 07:07:34;;;;;;;5.35;3.88;;;;;;;11.56;100.00;100302.66;4828960;29;20117;-78
2022/10/31 07:10:00;;;;;;;4.97;3.70;;;;;;;11.57;100.00;100297.91;4828763;29;20049;-78
2022/10/31 07:12:25;;;;;;;4.50;4.10;;;;;;;11.58;100.00;100294.81;4827928;29;20391;-78
2022/10/31 07:14:51;;;;;;;4.85;4.30;;;;;;;11.57;100.00;100293.16;4798507;29;20030;-78
2022/10/31 07:17:16;;;;;;;4.90;4.13;;;;;;;11.55;100.00;100277.91;4815527;29;20025;-78
2022/10/31 07:19:42;;;;;;;4.75;4.07;;;;;;;11.58;100.00;100274.50;4814519;29;20034;-77
2022/10/31 07:22:07;;;;;;;10.13;5.90;;;;;;;11.59;100.00;100265.06;4818150;29;20496;-78
2022/10/31 07:24:33;;;;;;;11.15;6.65;;;;;;;11.60;100.00;100253.63;4828489;29;20048;-78
2022/10/31 07:26:58;;;;;;;18.25;8.77;;;;;;;11.58;100.00;100255.88;4780401;29;20046;-78
2022/10/31 07:29:23;;;;;;;15.60;9.00;;;;;;;11.60;100.00;100261.13;4813181;29;20026;-78
2022/10/31 07:31:49;;;;;;;14.13;7.97;;;;;;;11.60;100.00;100270.31;4783198;29;20042;-78
2022/10/31 07:34:15;;;;;;;18.90;9.98;;;;;;;11.62;100.00;100262.47;4825463;29;20061;-78
2022/10/31 07:36:40;;;;;;;17.88;9.25;;;;;;;11.61;100.00;100265.56;4811673;29;20395;-77
2022/10/31 07:39:06;;;;;;;18.42;9.48;;;;;;;11.61;100.00;100271.13;4813343;29;20026;-78
2022/10/31 07:41:31;;;;;;;23.50;9.27;;;;;;;11.63;100.00;100254.97;4797959;29;20072;-78
2022/10/31 07:43:57;;;;;;;20.35;10.90;;;;;;;11.65;100.00;100254.66;4798610;29;20042;-78
2022/10/31 07:46:22;;;;;;;26.92;12.25;;;;;;;11.67;100.00;100244.03;4828419;29;20046;-78
2022/10/31 07:48:48;;;;;;;24.42;12.52;;;;;;;11.66;100.00;100246.00;4815378;29;20046;-78
2022/10/31 07:51:13;;;;;;;23.02;10.98;;;;;;;11.68;100.00;100260.44;4792047;29;20043;-78
2022/10/31 07:53:39;;;;;;;24.35;11.70;;;;;;;11.73;100.00;100257.56;4812979;29;20407;-78
2022/10/31 07:56:04;;;;;;;23.48;11.40;;;;;;;11.75;100.00;100255.25;4795376;29;20030;-74
2022/10/31 07:58:30;;;;;;;21.33;11.65;;;;;;;11.75;100.00;100249.69;4852916;29;20033;-77
2022/10/31 08:00:57;;;;;;;23.63;10.55;;;;;;;11.79;100.00;100241.59;4813104;29;20038;-78
2022/10/31 08:03:22;;;;;;;21.83;10.25;;;;;;;11.83;100.00;100245.38;4796651;29;20026;-78
2022/10/31 08:05:48;;;;;;;21.25;10.23;;;;;;;11.82;100.00;100244.56;4817235;29;20053;-77
2022/10/31 08:08:13;;;;;;;17.13;9.50;;;;;;;11.84;100.00;100235.91;4829877;29;20083;-78
2022/10/31 08:10:40;;;;;;;22.90;9.32;;;;;;;11.89;100.00;100229.44;4802273;29;20394;-78
2022/10/31 08:13:10;;;;;;;17.17;8.52;;;;;;;11.87;100.00;100221.41;4831212;29;20038;-77
2022/10/31 08:15:39;;;;;;;17.83;7.72;;;;;;;11.90;100.00;100219.97;4801566;29;20399;-77
2022/10/31 08:18:14;;;;;;;16.02;7.88;;;;;;;11.94;100.00;100207.06;4801122;29;20044;-77
2022/10/31 08:20:43;;;;;;;16.70;7.30;;;;;;;11.97;100.00;100217.59;4800736;29;20038;-78
2022/10/31 08:23:09;;;;;;;14.32;6.72;;;;;;;12.01;100.00;100207.50;4828799;29;20065;-78
2022/10/31 08:25:35;;;;;;;14.32;6.97;;;;;;;12.01;100.00;100199.97;4820045;29;20066;-78
2022/10/31 08:28:00;;;;;;;13.88;6.03;;;;;;;12.05;100.00;100202.94;4827621;29;20539;-77
2022/10/31 08:30:28;;;;;;;13.30;5.97;;;;;;;12.07;100.00;100190.34;4830568;29;20098;-77
2022/10/31 08:33:01;;;;;;;11.80;5.53;;;;;;;12.14;100.00;100180.75;4815535;29;20037;-77
2022/10/31 08:35:27;;;;;;;10.63;4.88;;;;;;;12.17;100.00;100177.34;4792161;29;20033;-77
2022/10/31 08:37:54;;;;;;;9.95;5.03;;;;;;;12.19;100.00;100173.09;4816174;29;20099;-77
2022/10/31 08:40:19;;;;;;;9.88;4.82;;;;;;;12.23;100.00;100168.59;4800642;29;20030;-77
2022/10/31 08:42:45;;;;;;;7.78;4.88;;;;;;;12.28;100.00;100168.44;4811191;29;20569;-70
2022/10/31 08:45:11;;;;;;;6.80;4.18;;;;;;;12.31;100.00;100167.00;4848072;29;20084;-79
2022/10/31 08:47:36;;;;;;;9.95;4.60;;;;;;;12.33;100.00;100158.34;4830652;29;20046;-79
2022/10/31 08:50:02;;;;;;;10.52;4.55;;;;;;;12.38;100.00;100159.03;4791688;29;20598;-79
2022/10/31 08:52:28;;;;;;;8.88;3.95;;;;;;;12.41;100.00;100160.38;4831253;29;20113;-79
2022/10/31 08:54:53;;;;;;;7.57;3.83;;;;;;;12.41;100.00;100161.19;4813803;29;20038;-78
2022/10/31 08:57:19;;;;;;;8.68;4.30;;;;;;;12.44;100.00;100148.59;4830797;29;20034;-79
2022/10/31 08:59:44;;;;;;;8.35;4.10;;;;;;;12.46;100.00;100144.34;4821366;29;20064;-78
2022/10/31 09:02:10;;;;;;;10.02;3.95;;;;;;;12.47;100.00;100145.19;4815442;29;20048;-79
2022/10/31 09:04:35;;;;;;;14.43;4.65;;;;;;;12.47;100.00;100131.25;4820629;29;20072;-79
2022/10/31 09:07:00;;;;;;;10.55;4.25;;;;;;;12.49;100.00;100127.00;4818582;29;20065;-78
2022/10/31 09:09:26;;;;;;;9.10;4.38;;;;;;;12.49;100.00;100124.22;4831006;29;20098;-78
2022/10/31 09:11:51;;;;;;;10.32;4.55;;;;;;;12.50;100.00;100120.28;4799978;29;20045;-78
2022/10/31 09:14:17;;;;;;;8.40;4.40;;;;;;;12.49;100.00;100107.53;4830885;29;20421;-79
2022/10/31 09:16:42;;;;;;;7.20;4.38;;;;;;;12.51;100.00;100108.03;4800749;29;20030;-78
2022/10/31 09:19:08;;;;;;;13.38;4.85;;;;;;;12.53;100.00;100102.13;4818015;29;20038;-78
2022/10/31 09:21:33;;;;;;;14.52;5.40;;;;;;;12.55;100.00;100093.47;4815729;29;20440;-79
2022/10/31 09:23:59;;;;;;;12.95;5.03;;;;;;;12.56;100.00;100097.88;4815680;29;20064;-79
2022/10/31 09:26:24;;;;;;;11.90;5.05;;;;;;;12.57;100.00;100097.59;4803804;29;20608;-77
2022/10/31 09:28:50;;;;;;;11.35;4.50;;;;;;;12.59;100.00;100094.47;4797640;29;20035;-77
2022/10/31 09:31:15;;;;;;;7.60;4.70;;;;;;;12.61;100.00;100084.66;4815198;29;20098;-77
2022/10/31 09:33:41;;;;;;;13.60;6.20;;;;;;;12.64;100.00;100081.22;4830783;29;20057;-77
2022/10/31 09:36:07;;;;;;;17.42;6.10;;;;;;;12.64;100.00;100081.22;4801286;29;20030;-77
2022/10/31 09:38:33;;;;;;;10.38;5.80;;;;;;;12.67;100.00;100091.72;4785070;29;20032;-77
2022/10/31 09:41:14;;;;;;;12.93;7.35;;;;;;;12.68;100.00;100076.69;4808283;29;20046;-78
2022/10/31 09:43:39;;;;;;;14.50;8.20;;;;;;;12.73;100.00;100082.13;4779562;29;20060;-77
2022/10/31 09:46:11;;;;;;;14.02;8.05;;;;;;;12.74;100.00;100083.75;4830231;29;20674;-77
2022/10/31 09:48:49;;;;;;;16.25;9.35;;;;;;;12.77;100.00;100073.94;4811706;29;20050;-77
2022/10/31 09:51:31;;;;;;;17.10;9.63;;;;;;;12.80;100.00;100062.16;4814870;29;20038;-77
2022/10/31 09:54:22;;;;;;;16.08;9.30;;;;;;;12.82;100.00;100051.50;4814491;29;20202;-77
2022/10/31 09:56:48;;;;;;;15.98;9.93;;;;;;;12.86;100.00;100051.69;4813109;29;20114;-77
2022/10/31 09:59:43;;;;;;;21.38;10.65;;;;;;;12.87;100.00;100039.38;4799666;29;20041;-76
2022/10/31 10:02:30;;;;;;;15.50;9.77;;;;;;;12.87;100.00;100040.22;4801074;29;20057;-77
2022/10/31 10:05:04;;;;;;;17.67;9.88;;;;;;;12.87;100.00;100037.44;4812047;29;20133;-77
2022/10/31 10:07:32;;;;;;;21.50;10.57;;;;;;;12.91;100.00;100024.50;4799895;29;20030;-77
2022/10/31 10:10:07;;;;;;;23.02;10.60;;;;;;;12.90;100.00;100027.63;4829148;29;20042;-77
2022/10/31 10:12:37;;;;;;;19.55;10.82;;;;;;;12.90;100.00;100024.84;4784932;29;20072;-77
2022/10/31 10:15:15;;;;;;;20.58;11.32;;;;;;;12.93;100.00;100021.41;4814664;29;20049;-77
2022/10/31 10:18:00;;;;;;;20.83;10.63;;;;;;;12.94;100.00;100017.47;4829282;29;20038;-76
2022/10/31 10:20:41;;;;;;;19.98;10.75;;;;;;;12.94;100.00;100015.50;4845441;29;20030;-76
2022/10/31 10:23:56;;;;;;;15.93;10.20;;;;;;;12.96;100.00;100009.59;4819137;29;20383;-78
2022/10/31 10:26:44;;;;;;;17.65;10.30;;;;;;;12.96;100.00;100010.44;4793002;29;20381;-78
2022/10/31 10:29:27;;;;;;;17.85;9.95;;;;;;;12.97;100.00;100008.44;4788296;29;20134;-78
2022/10/31 10:31:53;;;;;;;19.15;10.77;;;;;;;12.97;100.00;100000.09;4790981;29;20049;-78
2022/10/31 10:34:29;;;;;;;18.52;10.35;;;;;;;12.99;100.00;100002.56;4776289;29;20038;-78
2022/10/31 10:36:57;;;;;;;17.77;10.80;;;;;;;13.00;100.00;99999.44;4791679;29;20467;-78
2022/10/31 10:39:44;;;;;;;19.63;10.50;;;;;;;13.02;100.00;99996.34;4776775;29;20038;-78
2022/10/31 10:47:43;;;;;;;22.35;12.05;;;;;;;13.10;100.00;99962.91;4770149;29;20100;-77
2022/10/31 10:50:21;;;;;;;17.77;10.82;;;;;;;13.13;100.00;99967.84;4759621;29;20112;-78
2022/10/31 10:52:59;;;;;;;19.50;11.65;;;;;;;13.21;100.00;99973.78;4777546;29;20046;-78
2022/10/31 10:55:42;;;;;;;20.95;11.90;;;;;;;13.29;100.00;99971.03;4776347;29;20035;-77
2022/10/31 10:58:08;;;;;;;20.25;11.77;;;;;;;13.35;100.00;99957.75;4758985;29;20043;-78
2022/10/31 11:00:41;;;;;;;17.85;11.95;;;;;;;13.41;100.00;99948.06;4790978;29;20102;-78
2022/10/31 11:03:07;;;;;;;19.58;12.98;;;;;;;13.46;100.00;99950.72;4799092;29;20066;-78
2022/10/31 11:05:37;;;;;;;22.85;11.98;;;;;;;13.53;100.00;99939.84;4828816;29;20441;-76
2022/10/31 11:08:03;;;;;;;22.30;12.60;;;;;;;13.63;100.00;99928.38;4813451;29;20038;-76
2022/10/31 11:10:29;;;;;;;24.35;12.25;;;;;;;13.69;100.00;99920.66;4798651;29;20057;-77
2022/10/31 11:13:21;;;;;;;18.77;11.85;;;;;;;13.79;100.00;99925.06;4798806;29;20045;-77
2022/10/31 11:16:09;;;;;;;22.63;11.43;;;;;;;13.86;100.00;99919.81;4810895;29;20689;-77
2022/10/31 11:18:41;;;;;;;22.70;12.20;;;;;;;13.94;100.00;99904.22;4812086;29;20038;-77
2022/10/31 11:21:23;;;;;;;17.30;11.70;;;;;;;14.00;100.00;99897.31;4798715;29;20395;-77
2022/10/31 11:23:49;;;;;;;23.05;12.48;;;;;;;14.05;100.00;99880.38;4800542;29;20596;-77
2022/10/31 11:26:19;;;;;;;19.02;11.23;;;;;;;14.09;100.00;99881.34;4819437;29;20042;-77
2022/10/31 11:28:55;;;;;;;21.40;13.15;;;;;;;14.13;100.00;99873.97;4813663;29;20045;-76